sensor_id;sensor_type;location;lat;lon;timestamp;temperature;humidity
2757;DHT22;1386;50.862;6.494;2022-08-19T00:01:16;19.50;99.90
2757;DHT22;1386;50.862;6.494;2022-08-19T00:03:43;19.50;99.90
2757;DHT22;1386;50.862;6.494;2022-08-19T00:06:10;19.50;99.90
2757;DHT22;1386;50.862;6.494;2022-08-19T00:08:37;19.40;99.90
2757;DHT22;1386;50.862;6.494;2022-08-19T00:11:04;19.40;99.90
2757;DHT22;1386;50.862;6.494;2022-08-19T00:13:32;19.40;99.90
2757;DHT22;1386;50.862;6.494;2022-08-19T00:16:02;19.30;99.90
2757;DHT22;1386;50.862;6.494;2022-08-19T00:18:29;19.30;99.90
2757;DHT22;1386;50.862;6.494;2022-08-19T00:20:55;19.30;99.90
2757;DHT22;1386;50.862;6.494;2022-08-19T00:23:22;19.30;99.90
2757;DHT22;1386;50.862;6.494;2022-08-19T00:25:49;19.30;99.90
2757;DHT22;1386;50.862;6.494;2022-08-19T00:28:16;19.20;99.90
2757;DHT22;1386;50.862;6.494;2022-08-19T00:30:43;19.20;99.90
2757;DHT22;1386;50.862;6.494;2022-08-19T00:33:11;19.20;99.90
2757;DHT22;1386;50.862;6.494;2022-08-19T00:35:39;19.20;99.90
2757;DHT22;1386;50.862;6.494;2022-08-19T00:38:06;19.20;99.90
2757;DHT22;1386;50.862;6.494;2022-08-19T00:40:33;19.20;99.90
2757;DHT22;1386;50.862;6.494;2022-08-19T00:43:00;19.10;99.90
2757;DHT22;1386;50.862;6.494;2022-08-19T00:45:28;19.10;99.90
2757;DHT22;1386;50.862;6.494;2022-08-19T00:47:57;19.10;99.90
2757;DHT22;1386;50.862;6.494;2022-08-19T00:50:30;19.10;99.90
2757;DHT22;1386;50.862;6.494;2022-08-19T00:52:58;19.00;99.90
2757;DHT22;1386;50.862;6.494;2022-08-19T00:55:26;19.00;99.90
2757;DHT22;1386;50.862;6.494;2022-08-19T00:57:59;19.00;99.90
2757;DHT22;1386;50.862;6.494;2022-08-19T01:00:28;19.00;99.90
2757;DHT22;1386;50.862;6.494;2022-08-19T01:02:55;19.00;99.90
2757;DHT22;1386;50.862;6.494;2022-08-19T01:05:24;19.00;99.90
2757;DHT22;1386;50.862;6.494;2022-08-19T01:07:54;18.90;99.90
2757;DHT22;1386;50.862;6.494;2022-08-19T01:10:25;18.90;99.90
2757;DHT22;1386;50.862;6.494;2022-08-19T01:12:54;18.90;99.90
2757;DHT22;1386;50.862;6.494;2022-08-19T01:15:25;18.90;99.90
2757;DHT22;1386;50.862;6.494;2022-08-19T01:17:54;18.90;99.90
2757;DHT22;1386;50.862;6.494;2022-08-19T01:20:23;18.80;99.90
2757;DHT22;1386;50.862;6.494;2022-08-19T01:22:53;18.80;99.90
2757;DHT22;1386;50.862;6.494;2022-08-19T01:25:24;18.80;99.90
2757;DHT22;1386;50.862;6.494;2022-08-19T01:27:54;18.80;99.90
2757;DHT22;1386;50.862;6.494;2022-08-19T01:30:24;18.80;99.90
2757;DHT22;1386;50.862;6.494;2022-08-19T01:32:53;18.80;99.90
2757;DHT22;1386;50.862;6.494;2022-08-19T01:35:22;18.80;99.90
2757;DHT22;1386;50.862;6.494;2022-08-19T01:37:53;18.80;99.90
2757;DHT22;1386;50.862;6.494;2022-08-19T01:40:24;18.80;99.90
2757;DHT22;1386;50.862;6.494;2022-08-19T01:42:52;18.80;99.90
2757;DHT22;1386;50.862;6.494;2022-08-19T01:45:21;18.80;99.90
2757;DHT22;1386;50.862;6.494;2022-08-19T01:47:49;18.70;99.90
2757;DHT22;1386;50.862;6.494;2022-08-19T01:50:16;18.70;99.90
2757;DHT22;1386;50.862;6.494;2022-08-19T01:52:43;18.60;99.90
2757;DHT22;1386;50.862;6.494;2022-08-19T01:55:14;18.60;99.90
2757;DHT22;1386;50.862;6.494;2022-08-19T01:57:46;18.60;99.90
2757;DHT22;1386;50.862;6.494;2022-08-19T02:00:16;18.70;99.90
2757;DHT22;1386;50.862;6.494;2022-08-19T02:02:44;18.70;99.90
2757;DHT22;1386;50.862;6.494;2022-08-19T02:05:11;18.70;99.90
2757;DHT22;1386;50.862;6.494;2022-08-19T02:07:39;18.70;99.90
2757;DHT22;1386;50.862;6.494;2022-08-19T02:10:10;18.70;99.90
2757;DHT22;1386;50.862;6.494;2022-08-19T02:12:39;18.60;99.90
2757;DHT22;1386;50.862;6.494;2022-08-19T02:15:06;18.60;99.90
2757;DHT22;1386;50.862;6.494;2022-08-19T02:17:33;18.60;99.90
2757;DHT22;1386;50.862;6.494;2022-08-19T02:20:00;18.60;99.90
2757;DHT22;1386;50.862;6.494;2022-08-19T02:22:27;18.50;99.90
2757;DHT22;1386;50.862;6.494;2022-08-19T02:24:54;18.50;99.90
2757;DHT22;1386;50.862;6.494;2022-08-19T02:27:22;18.50;99.90
2757;DHT22;1386;50.862;6.494;2022-08-19T02:29:50;18.40;99.90
2757;DHT22;1386;50.862;6.494;2022-08-19T02:32:18;18.40;99.90
2757;DHT22;1386;50.862;6.494;2022-08-19T02:34:46;18.30;99.90
2757;DHT22;1386;50.862;6.494;2022-08-19T02:37:13;18.30;99.90
2757;DHT22;1386;50.862;6.494;2022-08-19T02:39:54;18.30;99.90
2757;DHT22;1386;50.862;6.494;2022-08-19T02:42:21;18.30;99.90
2757;DHT22;1386;50.862;6.494;2022-08-19T02:44:49;18.20;99.90
2757;DHT22;1386;50.862;6.494;2022-08-19T02:47:17;18.20;99.90
2757;DHT22;1386;50.862;6.494;2022-08-19T02:49:44;18.20;99.90
2757;DHT22;1386;50.862;6.494;2022-08-19T02:52:11;18.10;99.90
2757;DHT22;1386;50.862;6.494;2022-08-19T02:54:38;18.10;99.90
2757;DHT22;1386;50.862;6.494;2022-08-19T02:57:05;18.10;99.90
2757;DHT22;1386;50.862;6.494;2022-08-19T02:59:33;18.10;99.90
2757;DHT22;1386;50.862;6.494;2022-08-19T03:02:01;18.00;99.90
2757;DHT22;1386;50.862;6.494;2022-08-19T03:04:28;18.00;99.90
2757;DHT22;1386;50.862;6.494;2022-08-19T03:06:56;18.00;99.90
2757;DHT22;1386;50.862;6.494;2022-08-19T03:09:23;18.00;99.90
2757;DHT22;1386;50.862;6.494;2022-08-19T03:11:49;17.90;99.90
2757;DHT22;1386;50.862;6.494;2022-08-19T03:14:19;17.90;99.90
2757;DHT22;1386;50.862;6.494;2022-08-19T03:16:48;17.90;99.90
2757;DHT22;1386;50.862;6.494;2022-08-19T03:19:18;17.90;99.90
2757;DHT22;1386;50.862;6.494;2022-08-19T03:21:45;17.90;99.90
2757;DHT22;1386;50.862;6.494;2022-08-19T03:24:13;17.90;99.90
2757;DHT22;1386;50.862;6.494;2022-08-19T03:26:42;17.90;99.90
2757;DHT22;1386;50.862;6.494;2022-08-19T03:29:10;17.90;99.90
2757;DHT22;1386;50.862;6.494;2022-08-19T03:31:38;17.90;99.90
2757;DHT22;1386;50.862;6.494;2022-08-19T03:34:06;17.90;99.90
2757;DHT22;1386;50.862;6.494;2022-08-19T03:36:35;17.90;99.90
2757;DHT22;1386;50.862;6.494;2022-08-19T03:39:02;17.90;99.90
2757;DHT22;1386;50.862;6.494;2022-08-19T03:41:32;17.90;99.90
2757;DHT22;1386;50.862;6.494;2022-08-19T03:43:59;17.90;99.90
2757;DHT22;1386;50.862;6.494;2022-08-19T03:46:28;18.00;99.90
2757;DHT22;1386;50.862;6.494;2022-08-19T03:48:57;18.00;99.90
2757;DHT22;1386;50.862;6.494;2022-08-19T03:51:26;18.00;99.90
2757;DHT22;1386;50.862;6.494;2022-08-19T03:53:56;18.00;99.90
2757;DHT22;1386;50.862;6.494;2022-08-19T03:56:23;18.00;99.90
2757;DHT22;1386;50.862;6.494;2022-08-19T03:58:51;17.90;99.90
2757;DHT22;1386;50.862;6.494;2022-08-19T04:01:20;17.90;99.90
2757;DHT22;1386;50.862;6.494;2022-08-19T04:03:48;17.90;99.90
2757;DHT22;1386;50.862;6.494;2022-08-19T04:06:18;17.90;99.90
2757;DHT22;1386;50.862;6.494;2022-08-19T04:08:47;17.90;99.90
2757;DHT22;1386;50.862;6.494;2022-08-19T04:11:18;17.80;99.90
2757;DHT22;1386;50.862;6.494;2022-08-19T04:13:47;17.80;99.90
2757;DHT22;1386;50.862;6.494;2022-08-19T04:16:14;17.80;99.90
2757;DHT22;1386;50.862;6.494;2022-08-19T04:18:41;17.80;99.90
2757;DHT22;1386;50.862;6.494;2022-08-19T04:21:08;17.80;99.90
2757;DHT22;1386;50.862;6.494;2022-08-19T04:23:41;17.80;99.90
2757;DHT22;1386;50.862;6.494;2022-08-19T04:26:12;17.80;99.90
2757;DHT22;1386;50.862;6.494;2022-08-19T04:28:41;17.80;99.90
2757;DHT22;1386;50.862;6.494;2022-08-19T04:31:12;17.80;99.90
2757;DHT22;1386;50.862;6.494;2022-08-19T04:33:39;17.80;99.90
2757;DHT22;1386;50.862;6.494;2022-08-19T04:36:07;17.80;99.90
2757;DHT22;1386;50.862;6.494;2022-08-19T04:38:35;17.80;99.90
2757;DHT22;1386;50.862;6.494;2022-08-19T04:41:03;17.80;99.90
2757;DHT22;1386;50.862;6.494;2022-08-19T04:43:48;17.80;99.90
2757;DHT22;1386;50.862;6.494;2022-08-19T04:46:16;17.80;99.90
2757;DHT22;1386;50.862;6.494;2022-08-19T04:48:45;17.80;99.90
2757;DHT22;1386;50.862;6.494;2022-08-19T04:51:16;17.90;99.90
2757;DHT22;1386;50.862;6.494;2022-08-19T04:53:43;17.90;99.90
2757;DHT22;1386;50.862;6.494;2022-08-19T04:56:13;17.90;99.90
2757;DHT22;1386;50.862;6.494;2022-08-19T04:58:43;17.90;99.90
2757;DHT22;1386;50.862;6.494;2022-08-19T05:01:13;18.00;99.90
2757;DHT22;1386;50.862;6.494;2022-08-19T05:03:40;18.00;99.90
2757;DHT22;1386;50.862;6.494;2022-08-19T05:06:11;18.00;99.90
2757;DHT22;1386;50.862;6.494;2022-08-19T05:08:39;18.00;99.90
2757;DHT22;1386;50.862;6.494;2022-08-19T05:11:13;18.00;99.90
2757;DHT22;1386;50.862;6.494;2022-08-19T05:13:41;18.00;99.90
2757;DHT22;1386;50.862;6.494;2022-08-19T05:16:09;18.00;99.90
2757;DHT22;1386;50.862;6.494;2022-08-19T05:18:56;18.00;99.90
2757;DHT22;1386;50.862;6.494;2022-08-19T05:21:41;18.00;99.90
2757;DHT22;1386;50.862;6.494;2022-08-19T05:24:26;18.00;99.90
2757;DHT22;1386;50.862;6.494;2022-08-19T05:27:07;18.00;99.90
2757;DHT22;1386;50.862;6.494;2022-08-19T05:29:34;18.00;99.90
2757;DHT22;1386;50.862;6.494;2022-08-19T05:32:16;18.00;99.90
2757;DHT22;1386;50.862;6.494;2022-08-19T05:34:46;18.10;99.90
2757;DHT22;1386;50.862;6.494;2022-08-19T05:37:33;18.10;99.90
2757;DHT22;1386;50.862;6.494;2022-08-19T05:40:05;18.20;99.90
2757;DHT22;1386;50.862;6.494;2022-08-19T05:42:40;18.20;99.90
2757;DHT22;1386;50.862;6.494;2022-08-19T05:45:20;18.20;99.90
2757;DHT22;1386;50.862;6.494;2022-08-19T05:47:47;18.20;99.90
2757;DHT22;1386;50.862;6.494;2022-08-19T05:53:06;18.20;99.90
2757;DHT22;1386;50.862;6.494;2022-08-19T05:55:34;18.30;99.90
2757;DHT22;1386;50.862;6.494;2022-08-19T05:58:20;18.40;99.90
2757;DHT22;1386;50.862;6.494;2022-08-19T06:01:01;18.40;99.90
2757;DHT22;1386;50.862;6.494;2022-08-19T06:03:31;18.40;99.90
2757;DHT22;1386;50.862;6.494;2022-08-19T06:06:18;18.50;99.90
2757;DHT22;1386;50.862;6.494;2022-08-19T06:08:45;18.50;99.90
2757;DHT22;1386;50.862;6.494;2022-08-19T06:11:19;18.50;99.90
2757;DHT22;1386;50.862;6.494;2022-08-19T06:13:47;18.50;99.90
2757;DHT22;1386;50.862;6.494;2022-08-19T06:16:17;18.60;99.90
2757;DHT22;1386;50.862;6.494;2022-08-19T06:18:48;18.60;99.90
2757;DHT22;1386;50.862;6.494;2022-08-19T06:21:18;18.60;99.90
2757;DHT22;1386;50.862;6.494;2022-08-19T06:24:13;18.60;99.90
2757;DHT22;1386;50.862;6.494;2022-08-19T06:26:43;18.70;99.90
2757;DHT22;1386;50.862;6.494;2022-08-19T06:29:12;18.70;99.90
2757;DHT22;1386;50.862;6.494;2022-08-19T06:31:42;18.70;99.90
2757;DHT22;1386;50.862;6.494;2022-08-19T06:34:09;18.70;99.90
2757;DHT22;1386;50.862;6.494;2022-08-19T06:36:40;18.70;99.90
2757;DHT22;1386;50.862;6.494;2022-08-19T06:39:11;18.80;99.90
2757;DHT22;1386;50.862;6.494;2022-08-19T06:41:40;18.80;99.90
2757;DHT22;1386;50.862;6.494;2022-08-19T06:44:08;18.90;99.90
2757;DHT22;1386;50.862;6.494;2022-08-19T06:46:36;19.00;99.90
2757;DHT22;1386;50.862;6.494;2022-08-19T06:49:04;19.10;99.90
2757;DHT22;1386;50.862;6.494;2022-08-19T06:51:30;19.10;99.90
2757;DHT22;1386;50.862;6.494;2022-08-19T06:54:07;19.10;99.90
2757;DHT22;1386;50.862;6.494;2022-08-19T06:56:34;19.10;99.90
2757;DHT22;1386;50.862;6.494;2022-08-19T07:01:48;19.10;99.90
2757;DHT22;1386;50.862;6.494;2022-08-19T07:04:37;19.10;99.90
2757;DHT22;1386;50.862;6.494;2022-08-19T07:07:06;19.20;99.90
2757;DHT22;1386;50.862;6.494;2022-08-19T07:09:37;19.30;99.90
2757;DHT22;1386;50.862;6.494;2022-08-19T07:12:07;19.30;99.90
2757;DHT22;1386;50.862;6.494;2022-08-19T07:14:36;19.40;99.90
2757;DHT22;1386;50.862;6.494;2022-08-19T07:17:06;19.50;99.90
2757;DHT22;1386;50.862;6.494;2022-08-19T07:19:45;19.60;99.90
2757;DHT22;1386;50.862;6.494;2022-08-19T07:22:43;19.70;99.90
2757;DHT22;1386;50.862;6.494;2022-08-19T07:25:18;19.70;99.90
2757;DHT22;1386;50.862;6.494;2022-08-19T07:27:48;19.80;99.90
2757;DHT22;1386;50.862;6.494;2022-08-19T07:30:15;19.80;99.90
2757;DHT22;1386;50.862;6.494;2022-08-19T07:32:43;19.90;99.90
2757;DHT22;1386;50.862;6.494;2022-08-19T07:35:10;19.90;99.90
2757;DHT22;1386;50.862;6.494;2022-08-19T07:37:36;20.00;99.90
2757;DHT22;1386;50.862;6.494;2022-08-19T07:40:06;20.00;99.90
2757;DHT22;1386;50.862;6.494;2022-08-19T07:42:35;20.00;99.90
2757;DHT22;1386;50.862;6.494;2022-08-19T07:45:03;20.00;99.90
2757;DHT22;1386;50.862;6.494;2022-08-19T07:47:30;20.10;99.90
2757;DHT22;1386;50.862;6.494;2022-08-19T07:49:57;20.20;99.90
2757;DHT22;1386;50.862;6.494;2022-08-19T07:52:24;20.20;99.90
2757;DHT22;1386;50.862;6.494;2022-08-19T07:54:50;20.30;99.90
2757;DHT22;1386;50.862;6.494;2022-08-19T07:57:17;20.40;99.90
2757;DHT22;1386;50.862;6.494;2022-08-19T07:59:46;20.60;99.90
2757;DHT22;1386;50.862;6.494;2022-08-19T08:02:13;20.70;99.90
2757;DHT22;1386;50.862;6.494;2022-08-19T08:04:39;20.70;99.90
2757;DHT22;1386;50.862;6.494;2022-08-19T08:07:24;20.80;99.90
2757;DHT22;1386;50.862;6.494;2022-08-19T08:10:08;20.90;99.90
2757;DHT22;1386;50.862;6.494;2022-08-19T08:12:38;21.10;99.90
2757;DHT22;1386;50.862;6.494;2022-08-19T08:15:10;21.20;99.90
2757;DHT22;1386;50.862;6.494;2022-08-19T08:17:42;21.30;99.90
2757;DHT22;1386;50.862;6.494;2022-08-19T08:20:10;21.30;99.90
2757;DHT22;1386;50.862;6.494;2022-08-19T08:22:37;21.30;99.90
2757;DHT22;1386;50.862;6.494;2022-08-19T08:25:26;21.40;99.90
2757;DHT22;1386;50.862;6.494;2022-08-19T08:27:53;21.40;99.90
2757;DHT22;1386;50.862;6.494;2022-08-19T08:30:24;21.60;99.90
2757;DHT22;1386;50.862;6.494;2022-08-19T08:32:51;21.70;99.90
2757;DHT22;1386;50.862;6.494;2022-08-19T08:35:21;21.90;99.90
2757;DHT22;1386;50.862;6.494;2022-08-19T08:37:49;22.00;99.90
2757;DHT22;1386;50.862;6.494;2022-08-19T08:40:21;22.30;99.90
2757;DHT22;1386;50.862;6.494;2022-08-19T08:42:55;22.40;99.90
2757;DHT22;1386;50.862;6.494;2022-08-19T08:45:28;22.60;99.90
2757;DHT22;1386;50.862;6.494;2022-08-19T08:47:58;22.70;99.90
2757;DHT22;1386;50.862;6.494;2022-08-19T08:50:33;22.90;99.90
2757;DHT22;1386;50.862;6.494;2022-08-19T08:53:03;23.00;99.90
2757;DHT22;1386;50.862;6.494;2022-08-19T08:55:32;23.20;99.90
2757;DHT22;1386;50.862;6.494;2022-08-19T08:58:01;23.30;99.90
2757;DHT22;1386;50.862;6.494;2022-08-19T09:00:33;23.30;99.90
2757;DHT22;1386;50.862;6.494;2022-08-19T09:03:02;23.30;99.90
2757;DHT22;1386;50.862;6.494;2022-08-19T09:05:37;23.30;99.90
2757;DHT22;1386;50.862;6.494;2022-08-19T09:08:12;23.30;99.90
2757;DHT22;1386;50.862;6.494;2022-08-19T09:10:44;23.50;99.90
2757;DHT22;1386;50.862;6.494;2022-08-19T09:13:17;23.60;99.90
2757;DHT22;1386;50.862;6.494;2022-08-19T09:15:52;23.70;99.90
2757;DHT22;1386;50.862;6.494;2022-08-19T09:18:21;23.90;99.90
2757;DHT22;1386;50.862;6.494;2022-08-19T09:20:49;24.00;99.90
2757;DHT22;1386;50.862;6.494;2022-08-19T09:23:17;24.10;99.90
2757;DHT22;1386;50.862;6.494;2022-08-19T09:25:44;24.10;99.90
2757;DHT22;1386;50.862;6.494;2022-08-19T09:28:11;24.30;99.90
2757;DHT22;1386;50.862;6.494;2022-08-19T09:30:40;24.50;99.90
2757;DHT22;1386;50.862;6.494;2022-08-19T09:33:09;24.60;99.90
2757;DHT22;1386;50.862;6.494;2022-08-19T09:35:36;24.80;99.90
2757;DHT22;1386;50.862;6.494;2022-08-19T09:38:03;25.00;99.90
2757;DHT22;1386;50.862;6.494;2022-08-19T09:40:30;25.10;99.90
2757;DHT22;1386;50.862;6.494;2022-08-19T09:42:58;25.20;99.90
2757;DHT22;1386;50.862;6.494;2022-08-19T09:45:26;25.40;99.90
2757;DHT22;1386;50.862;6.494;2022-08-19T09:47:53;25.50;99.90
2757;DHT22;1386;50.862;6.494;2022-08-19T09:50:22;25.60;99.90
2757;DHT22;1386;50.862;6.494;2022-08-19T09:52:50;25.70;99.90
2757;DHT22;1386;50.862;6.494;2022-08-19T09:55:19;25.70;99.90
2757;DHT22;1386;50.862;6.494;2022-08-19T09:57:46;25.80;99.90
2757;DHT22;1386;50.862;6.494;2022-08-19T10:00:13;26.00;99.90
2757;DHT22;1386;50.862;6.494;2022-08-19T10:02:41;26.00;99.90
2757;DHT22;1386;50.862;6.494;2022-08-19T10:05:08;26.00;99.90
2757;DHT22;1386;50.862;6.494;2022-08-19T10:07:53;26.00;99.90
2757;DHT22;1386;50.862;6.494;2022-08-19T10:10:20;26.00;99.90
2757;DHT22;1386;50.862;6.494;2022-08-19T10:12:47;26.10;99.90
2757;DHT22;1386;50.862;6.494;2022-08-19T10:15:14;26.10;99.90
2757;DHT22;1386;50.862;6.494;2022-08-19T10:17:42;26.20;99.90
2757;DHT22;1386;50.862;6.494;2022-08-19T10:20:09;26.20;99.90
2757;DHT22;1386;50.862;6.494;2022-08-19T10:22:36;26.30;99.90
2757;DHT22;1386;50.862;6.494;2022-08-19T10:25:07;26.30;99.90
2757;DHT22;1386;50.862;6.494;2022-08-19T10:27:34;26.40;99.90
2757;DHT22;1386;50.862;6.494;2022-08-19T10:30:01;26.50;99.90
2757;DHT22;1386;50.862;6.494;2022-08-19T10:32:28;26.50;99.90
2757;DHT22;1386;50.862;6.494;2022-08-19T10:34:55;26.60;99.90
2757;DHT22;1386;50.862;6.494;2022-08-19T10:37:23;26.50;99.90
2757;DHT22;1386;50.862;6.494;2022-08-19T10:39:50;26.40;99.90
2757;DHT22;1386;50.862;6.494;2022-08-19T10:42:18;26.30;99.90
2757;DHT22;1386;50.862;6.494;2022-08-19T10:44:46;26.40;99.90
2757;DHT22;1386;50.862;6.494;2022-08-19T10:47:13;26.30;99.90
2757;DHT22;1386;50.862;6.494;2022-08-19T10:49:40;26.30;99.90
2757;DHT22;1386;50.862;6.494;2022-08-19T10:52:21;26.20;99.90
2757;DHT22;1386;50.862;6.494;2022-08-19T10:55:00;26.30;99.90
2757;DHT22;1386;50.862;6.494;2022-08-19T10:57:46;26.30;99.90
2757;DHT22;1386;50.862;6.494;2022-08-19T11:00:13;26.50;99.90
2757;DHT22;1386;50.862;6.494;2022-08-19T11:02:40;26.50;99.90
2757;DHT22;1386;50.862;6.494;2022-08-19T11:05:08;26.50;99.90
2757;DHT22;1386;50.862;6.494;2022-08-19T11:07:36;26.70;99.90
2757;DHT22;1386;50.862;6.494;2022-08-19T11:10:05;26.80;99.90
2757;DHT22;1386;50.862;6.494;2022-08-19T11:12:32;26.90;99.90
2757;DHT22;1386;50.862;6.494;2022-08-19T11:15:00;27.00;99.30
2757;DHT22;1386;50.862;6.494;2022-08-19T11:17:27;26.90;99.30
2757;DHT22;1386;50.862;6.494;2022-08-19T11:19:57;27.00;99.30
2757;DHT22;1386;50.862;6.494;2022-08-19T11:22:27;27.00;99.00
2757;DHT22;1386;50.862;6.494;2022-08-19T11:24:53;27.00;98.10
2757;DHT22;1386;50.862;6.494;2022-08-19T11:27:21;27.00;98.60
2757;DHT22;1386;50.862;6.494;2022-08-19T11:29:47;27.00;98.10
2757;DHT22;1386;50.862;6.494;2022-08-19T11:32:16;26.80;97.70
2757;DHT22;1386;50.862;6.494;2022-08-19T11:34:43;26.80;97.30
2757;DHT22;1386;50.862;6.494;2022-08-19T11:37:10;27.00;97.10
2757;DHT22;1386;50.862;6.494;2022-08-19T11:39:37;27.10;97.10
2757;DHT22;1386;50.862;6.494;2022-08-19T11:42:06;27.30;96.10
2757;DHT22;1386;50.862;6.494;2022-08-19T11:44:53;27.30;95.70
2757;DHT22;1386;50.862;6.494;2022-08-19T11:47:22;27.50;95.40
2757;DHT22;1386;50.862;6.494;2022-08-19T11:49:49;27.50;94.90
2757;DHT22;1386;50.862;6.494;2022-08-19T11:52:16;27.60;94.30
2757;DHT22;1386;50.862;6.494;2022-08-19T11:54:43;27.70;93.90
2757;DHT22;1386;50.862;6.494;2022-08-19T11:57:10;27.80;93.80
2757;DHT22;1386;50.862;6.494;2022-08-19T11:59:37;27.90;94.40
2757;DHT22;1386;50.862;6.494;2022-08-19T12:02:04;28.10;93.10
2757;DHT22;1386;50.862;6.494;2022-08-19T12:04:32;28.10;92.70
2757;DHT22;1386;50.862;6.494;2022-08-19T12:06:59;28.10;92.60
2757;DHT22;1386;50.862;6.494;2022-08-19T12:09:27;28.10;92.50
2757;DHT22;1386;50.862;6.494;2022-08-19T12:11:54;28.10;91.90
2757;DHT22;1386;50.862;6.494;2022-08-19T12:14:21;28.10;91.70
2757;DHT22;1386;50.862;6.494;2022-08-19T12:16:48;28.20;91.00
2757;DHT22;1386;50.862;6.494;2022-08-19T12:19:15;28.30;91.50
2757;DHT22;1386;50.862;6.494;2022-08-19T12:21:43;28.40;91.60
2757;DHT22;1386;50.862;6.494;2022-08-19T12:24:10;28.40;91.50
2757;DHT22;1386;50.862;6.494;2022-08-19T12:26:37;28.40;91.30
2757;DHT22;1386;50.862;6.494;2022-08-19T12:29:04;28.40;91.30
2757;DHT22;1386;50.862;6.494;2022-08-19T12:31:32;28.50;91.30
2757;DHT22;1386;50.862;6.494;2022-08-19T12:33:59;28.60;90.70
2757;DHT22;1386;50.862;6.494;2022-08-19T12:36:26;28.70;90.80
2757;DHT22;1386;50.862;6.494;2022-08-19T12:38:58;28.70;90.30
2757;DHT22;1386;50.862;6.494;2022-08-19T12:41:25;28.70;90.30
2757;DHT22;1386;50.862;6.494;2022-08-19T12:43:52;28.70;90.30
2757;DHT22;1386;50.862;6.494;2022-08-19T12:46:19;28.70;90.90
2757;DHT22;1386;50.862;6.494;2022-08-19T12:48:46;28.70;90.60
2757;DHT22;1386;50.862;6.494;2022-08-19T12:51:15;28.70;90.40
2757;DHT22;1386;50.862;6.494;2022-08-19T12:53:42;28.70;90.10
2757;DHT22;1386;50.862;6.494;2022-08-19T12:56:13;28.80;90.00
2757;DHT22;1386;50.862;6.494;2022-08-19T12:58:43;28.80;90.10
2757;DHT22;1386;50.862;6.494;2022-08-19T13:01:11;28.90;88.40
2757;DHT22;1386;50.862;6.494;2022-08-19T13:03:39;28.80;88.70
2757;DHT22;1386;50.862;6.494;2022-08-19T13:06:13;28.70;89.10
2757;DHT22;1386;50.862;6.494;2022-08-19T13:08:41;28.90;89.60
2757;DHT22;1386;50.862;6.494;2022-08-19T13:11:10;28.80;89.10
2757;DHT22;1386;50.862;6.494;2022-08-19T13:13:41;28.90;87.60
2757;DHT22;1386;50.862;6.494;2022-08-19T13:16:10;28.90;88.70
2757;DHT22;1386;50.862;6.494;2022-08-19T13:18:38;28.90;88.00
2757;DHT22;1386;50.862;6.494;2022-08-19T13:21:07;28.90;87.20
2757;DHT22;1386;50.862;6.494;2022-08-19T13:23:35;28.90;87.00
2757;DHT22;1386;50.862;6.494;2022-08-19T13:26:04;28.90;86.00
2757;DHT22;1386;50.862;6.494;2022-08-19T13:28:32;28.80;86.60
2757;DHT22;1386;50.862;6.494;2022-08-19T13:31:16;28.80;86.50
2757;DHT22;1386;50.862;6.494;2022-08-19T13:34:01;28.80;86.80
2757;DHT22;1386;50.862;6.494;2022-08-19T13:36:29;28.90;85.20
2757;DHT22;1386;50.862;6.494;2022-08-19T13:38:56;28.80;84.40
2757;DHT22;1386;50.862;6.494;2022-08-19T13:41:23;28.70;84.40
2757;DHT22;1386;50.862;6.494;2022-08-19T13:43:50;28.70;84.30
2757;DHT22;1386;50.862;6.494;2022-08-19T13:46:18;28.80;82.30
2757;DHT22;1386;50.862;6.494;2022-08-19T13:48:46;28.80;81.00
2757;DHT22;1386;50.862;6.494;2022-08-19T13:51:14;28.80;79.70
2757;DHT22;1386;50.862;6.494;2022-08-19T13:53:42;28.70;79.30
2757;DHT22;1386;50.862;6.494;2022-08-19T13:56:13;28.70;80.00
2757;DHT22;1386;50.862;6.494;2022-08-19T13:58:40;28.80;80.60
2757;DHT22;1386;50.862;6.494;2022-08-19T14:01:08;28.90;80.30
2757;DHT22;1386;50.862;6.494;2022-08-19T14:03:37;28.80;80.30
2757;DHT22;1386;50.862;6.494;2022-08-19T14:06:04;28.80;80.90
2757;DHT22;1386;50.862;6.494;2022-08-19T14:08:31;28.80;81.40
2757;DHT22;1386;50.862;6.494;2022-08-19T14:10:58;28.80;80.70
2757;DHT22;1386;50.862;6.494;2022-08-19T14:13:25;28.60;81.10
2757;DHT22;1386;50.862;6.494;2022-08-19T14:15:52;28.50;82.40
2757;DHT22;1386;50.862;6.494;2022-08-19T14:18:20;28.50;83.10
2757;DHT22;1386;50.862;6.494;2022-08-19T14:20:51;28.30;83.60
2757;DHT22;1386;50.862;6.494;2022-08-19T14:23:19;28.30;83.60
2757;DHT22;1386;50.862;6.494;2022-08-19T14:25:46;28.30;83.10
2757;DHT22;1386;50.862;6.494;2022-08-19T14:28:13;28.30;83.30
2757;DHT22;1386;50.862;6.494;2022-08-19T14:30:41;28.40;83.60
2757;DHT22;1386;50.862;6.494;2022-08-19T14:33:10;28.40;84.40
2757;DHT22;1386;50.862;6.494;2022-08-19T14:35:37;28.40;84.30
2757;DHT22;1386;50.862;6.494;2022-08-19T14:38:06;28.40;83.60
2757;DHT22;1386;50.862;6.494;2022-08-19T14:40:42;28.40;84.00
2757;DHT22;1386;50.862;6.494;2022-08-19T14:43:08;28.40;84.00
2757;DHT22;1386;50.862;6.494;2022-08-19T14:45:37;28.30;83.90
2757;DHT22;1386;50.862;6.494;2022-08-19T14:48:05;28.30;84.20
2757;DHT22;1386;50.862;6.494;2022-08-19T14:50:35;28.30;84.00
2757;DHT22;1386;50.862;6.494;2022-08-19T14:53:05;28.10;84.00
2757;DHT22;1386;50.862;6.494;2022-08-19T14:55:33;27.90;85.20
2757;DHT22;1386;50.862;6.494;2022-08-19T14:58:00;27.80;85.90
2757;DHT22;1386;50.862;6.494;2022-08-19T15:00:27;27.60;86.30
2757;DHT22;1386;50.862;6.494;2022-08-19T15:02:54;27.50;87.70
2757;DHT22;1386;50.862;6.494;2022-08-19T15:05:22;27.50;88.40
2757;DHT22;1386;50.862;6.494;2022-08-19T15:07:49;27.40;89.20
2757;DHT22;1386;50.862;6.494;2022-08-19T15:10:17;27.40;89.70
2757;DHT22;1386;50.862;6.494;2022-08-19T15:12:44;27.30;90.00
2757;DHT22;1386;50.862;6.494;2022-08-19T15:15:13;27.30;90.10
2757;DHT22;1386;50.862;6.494;2022-08-19T15:17:43;27.30;90.10
2757;DHT22;1386;50.862;6.494;2022-08-19T15:20:11;27.20;90.40
2757;DHT22;1386;50.862;6.494;2022-08-19T15:22:39;27.10;90.70
2757;DHT22;1386;50.862;6.494;2022-08-19T15:25:10;27.10;90.70
2757;DHT22;1386;50.862;6.494;2022-08-19T15:27:39;27.00;90.70
2757;DHT22;1386;50.862;6.494;2022-08-19T15:30:07;27.00;91.00
2757;DHT22;1386;50.862;6.494;2022-08-19T15:32:34;26.90;91.10
2757;DHT22;1386;50.862;6.494;2022-08-19T15:35:02;26.90;91.30
2757;DHT22;1386;50.862;6.494;2022-08-19T15:37:30;26.90;91.50
2757;DHT22;1386;50.862;6.494;2022-08-19T15:39:57;26.90;91.60
2757;DHT22;1386;50.862;6.494;2022-08-19T15:42:24;27.00;91.40
2757;DHT22;1386;50.862;6.494;2022-08-19T15:44:53;27.00;91.70
2757;DHT22;1386;50.862;6.494;2022-08-19T15:47:21;26.80;91.80
2757;DHT22;1386;50.862;6.494;2022-08-19T15:49:48;26.70;92.10
2757;DHT22;1386;50.862;6.494;2022-08-19T15:52:15;26.60;92.10
2757;DHT22;1386;50.862;6.494;2022-08-19T15:54:43;26.50;92.40
2757;DHT22;1386;50.862;6.494;2022-08-19T15:57:12;26.50;92.70
2757;DHT22;1386;50.862;6.494;2022-08-19T15:59:58;26.50;92.70
2757;DHT22;1386;50.862;6.494;2022-08-19T16:02:43;26.40;92.90
2757;DHT22;1386;50.862;6.494;2022-08-19T16:05:27;26.30;93.30
2757;DHT22;1386;50.862;6.494;2022-08-19T16:08:12;26.30;93.50
2757;DHT22;1386;50.862;6.494;2022-08-19T16:10:40;26.30;93.70
2757;DHT22;1386;50.862;6.494;2022-08-19T16:13:07;26.20;93.80
2757;DHT22;1386;50.862;6.494;2022-08-19T16:15:36;26.20;94.00
2757;DHT22;1386;50.862;6.494;2022-08-19T16:18:06;26.00;94.30
2757;DHT22;1386;50.862;6.494;2022-08-19T16:20:33;25.90;94.60
2757;DHT22;1386;50.862;6.494;2022-08-19T16:23:00;25.90;94.80